• Join FlightAware (Why Join?)
  • Login
  • US Flag 
05:22AM EDT


 

Airport Tracker/Info


-or-


 

Live Flight TrackerFlight Track Log ✈ CMF87X ✈ 21-May-2013 ✈ KRST - KGCC

Flight Track Log - Related Links

Times and Time Zones

All times are in EDT time to prevent confusion due to time zone crossing. See the CMF87X flight status page for this flight to view local times or setup timezone preferences in your user account.

Time Position Orientation Groundspeed Altitude Reporting Facility
EDT Latitude Longitude Course Direction KTS MPH feet Rate Location/Type
07:32AM 43.8825 -92.4919 270° West 104 120 2,800  Level Minneapolis Center
07:33AM 43.8992 -92.5311 301° West 115 132 3,200 420 Climbing Minneapolis Center
07:34AM 43.9097 -92.5764 288° West 124 143 3,700 480 Climbing Minneapolis Center
07:35AM 43.9136 -92.6253 276° West 128 147 4,200 540 Climbing Minneapolis Center
07:36AM 43.9301 -92.7978 277° West  Level FlightAware Approximate
07:36AM 43.9194 -92.6781 279° West 129 148 4,800  Level Minneapolis Center
07:37AM 43.9333 -92.8577 270° West  Level FlightAware Approximate
07:37AM 43.9258 -92.7256 281° West 128 147 5,400  Level Minneapolis Center
07:38AM 43.9331 -92.7728 282° West 128 147 6,000 540 Climbing Minneapolis Center
07:39AM 43.9364 -92.8214 275° West 127 146 6,500 540 Climbing Minneapolis Center
07:40AM 43.9433 -92.8814 279° West 128 147 7,300 600 Climbing Minneapolis Center
07:41AM 43.9472 -92.9331 276° West 126 145 7,900 540 Climbing Minneapolis Center
07:42AM 43.9511 -92.9814 276° West 128 147 8,500 540 Climbing Minneapolis Center
07:43AM 43.9542 -93.0294 275° West 127 146 9,000 540 Climbing Minneapolis Center
07:44AM 43.9572 -93.0789 275° West 130 150 9,700 600 Climbing Minneapolis Center
07:45AM 43.9589 -93.1300 273° West 130 150 10,300 660 Climbing Minneapolis Center
07:46AM 43.9581 -93.1769 269° West 127 146 11,100 780 Climbing Minneapolis Center
07:47AM 43.9583 -93.2161 271° West 113 130 12,000 660 Climbing Minneapolis Center
07:48AM 43.9592 -93.2542 272° West 106 122 12,500 480 Climbing Minneapolis Center
07:49AM 43.9644 -93.2978 280° West 107 123 13,000 540 Climbing Minneapolis Center
07:50AM 43.9689 -93.3433 278° West 112 129 13,600 540 Climbing Minneapolis Center
07:51AM 43.9733 -93.3883 278° West 116 133 14,100 240 Climbing Minneapolis Center
07:52AM 43.9803 -93.4411 280° West 131 151 14,100 -60 Level Minneapolis Center
07:53AM 43.9844 -93.5106 275° West 147 169 14,000 -60 Descending Minneapolis Center
07:54AM 43.9878 -93.5675 275° West 148 170 14,000  Level Minneapolis Center
07:55AM 43.9900 -93.6206 273° West 140 161 14,100  Climbing Minneapolis Center
07:56AM 43.9964 -93.6750 279° West 143 165 14,100  Level Minneapolis Center
07:57AM 44.0017 -93.7319 277° West 148 170 14,100  Level Minneapolis Center
07:58AM 44.0067 -93.7886 277° West 149 171 14,100  Level Minneapolis Center
07:59AM 44.0128 -93.8439 279° West 145 167 14,100 -60 Level Minneapolis Center
08:00AM 44.0181 -93.9022 277° West 151 174 14,000 -60 Descending Minneapolis Center
08:01AM 44.0200 -93.9594 273° West 151 174 14,000  Level Minneapolis Center
08:02AM 44.0208 -94.0150 271° West 146 168 14,000  Level Minneapolis Center
08:03AM 44.0164 -94.0708 264° West 145 167 14,000 -60 Level Minneapolis Center
08:04AM 44.0125 -94.1383 265° West 152 175 13,900 -60 Descending Minneapolis Center
08:05AM 44.0181 -94.1964 278° West 153 176 13,900  Level Minneapolis Center
08:06AM 44.0244 -94.2550 279° West 153 176 13,900  Level Minneapolis Center
08:07AM 44.0278 -94.3136 275° West 153 176 14,000  Climbing Minneapolis Center
08:08AM 44.0317 -94.3708 275° West 152 175 13,900 -60 Descending Minneapolis Center
08:09AM 44.0378 -94.4278 279° West 150 173 13,900  Level Minneapolis Center
08:10AM 44.0503 -94.4869 286° West 154 177 13,900  Level Minneapolis Center
08:11AM 44.0606 -94.5436 284° West 154 177 13,900  Level Minneapolis Center
08:12AM 44.0672 -94.6017 279° West 152 175 13,900  Level Minneapolis Center
08:13AM 44.0758 -94.6722 280° West 154 177 13,900  Level Minneapolis Center
08:14AM 44.0833 -94.7292 280° West 151 174 13,900  Level Minneapolis Center
08:15AM 44.0903 -94.7883 279° West 152 175 13,900  Level Minneapolis Center
08:17AM 44.0958 -94.8433 278° West 150 173 14,000  Climbing Minneapolis Center
08:18AM 44.1000 -94.9006 276° West 148 170 14,000  Level Minneapolis Center
08:19AM 44.1056 -94.9611 277° West 153 176 14,000  Level Minneapolis Center
08:20AM 44.1103 -95.0189 277° West 153 176 14,000  Level Minneapolis Center
08:21AM 44.1142 -95.0761 275° West 151 174 14,000  Level Minneapolis Center
08:22AM 44.1167 -95.1456 273° West 150 173 14,000  Level Minneapolis Center
08:23AM 44.1214 -95.2061 276° West 153 176 14,000  Level Minneapolis Center
08:24AM 44.1236 -95.2525 274° West 153 176 14,000  Level Minneapolis Center
08:25AM 44.1261 -95.3217 273° West 151 174 14,000  Level Minneapolis Center
08:26AM 44.1281 -95.3797 273° West 151 174 14,000  Level Minneapolis Center
08:27AM 44.1317 -95.4406 275° West 154 177 14,000 -60 Level Minneapolis Center
08:28AM 44.1356 -95.5003 275° West 155 178 13,900  Descending Minneapolis Center
08:29AM 44.1419 -95.5714 277° West 155 178 14,000  Climbing Minneapolis Center
08:30AM 44.1469 -95.6311 277° West 156 180 14,000  Level Minneapolis Center
08:31AM 44.1533 -95.6925 278° West 157 181 14,000  Level Minneapolis Center
08:32AM 44.1592 -95.7522 278° West 158 182 14,000  Level Minneapolis Center
08:33AM 44.1653 -95.8136 278° West 158 182 14,000  Level Minneapolis Center
08:34AM 44.1697 -95.8736 276° West 158 182 14,000  Level Minneapolis Center
08:35AM 44.1744 -95.9356 276° West 159 183 14,000 -60 Level Minneapolis Center
08:36AM 44.1764 -95.9978 273° West 160 184 13,900  Descending Minneapolis Center
08:37AM 44.1617 -96.0675 254° West 155 178 14,000  Climbing Minneapolis Center
08:38AM 44.1456 -96.1217 248° West 152 175 14,000  Level Minneapolis Center
08:39AM 44.1317 -96.1786 251° West 152 175 14,000 -60 Level Minneapolis Center
08:40AM 44.1122 -96.2325 243° Southwest 153 176 13,900 -60 Descending Minneapolis Center
08:41AM 44.0933 -96.2867 244° Southwest 155 178 13,900  Level Minneapolis Center
08:42AM 44.0778 -96.3442 249° West 158 182 14,000  Climbing Minneapolis Center
08:43AM 44.0622 -96.3992 249° West 154 177 14,000  Level Minneapolis Center
08:44AM 44.0467 -96.4553 249° West 155 178 14,000  Level Minneapolis Center
08:45AM 44.0331 -96.5103 251° West 153 176 14,000  Level Minneapolis Center
08:46AM 44.0158 -96.5789 251° West 155 178 14,000  Level Minneapolis Center
08:47AM 44.0014 -96.6353 250° West 156 180 14,000  Level Minneapolis Center
08:48AM 43.9864 -96.6900 249° West 153 176 14,000  Level Minneapolis Center
08:49AM 43.9733 -96.7433 251° West 150 173 14,000  Level Minneapolis Center
08:50AM 43.9628 -96.7997 255° West 150 173 14,000  Level Minneapolis Center
08:51AM 43.9544 -96.8564 258° West 150 173 14,000  Level Minneapolis Center
08:52AM 43.9439 -96.9117 255° West 149 171 14,000  Level Minneapolis Center
08:53AM 43.9272 -96.9767 250° West 149 171 14,000  Level Minneapolis Center
08:55AM 43.9194 -97.0322 259° West 148 170 14,000  Level Minneapolis Center
08:56AM 43.9125 -97.0878 260° West 147 169 14,000  Level Minneapolis Center
08:57AM 43.9042 -97.1428 258° West 147 169 14,000  Level Minneapolis Center
08:58AM 43.8936 -97.1994 256° West 151 174 14,000 -60 Level Minneapolis Center
08:59AM 43.8831 -97.2561 256° West 152 175 13,900  Descending Minneapolis Center
09:00AM 43.8708 -97.3117 253° West 151 174 14,000  Climbing Minneapolis Center
09:01AM 43.8564 -97.3781 253° West 151 174 14,000  Level Minneapolis Center
09:02AM 43.8431 -97.4358 252° West 156 180 14,000  Level Minneapolis Center
09:03AM 43.8308 -97.4914 253° West 153 176 14,000  Level Minneapolis Center
09:04AM 43.8158 -97.5483 250° West 156 180 14,000  Level Minneapolis Center
09:05AM 43.8039 -97.5936 250° West 156 180 14,000  Level Minneapolis Center
09:06AM 43.7858 -97.6614 250° West 156 180 14,000  Level Minneapolis Center
09:07AM 43.7703 -97.7156 248° West 155 178 14,000  Level Minneapolis Center
09:08AM 43.7558 -97.7600 246° West 156 180 14,000  Level Minneapolis Center
09:09AM 43.7306 -97.8361 245° Southwest 156 180 14,000  Level Minneapolis Center
09:10AM 43.7156 -97.8922 250° West 156 180 14,000  Level Minneapolis Center
09:11AM 43.6997 -97.9486 249° West 158 182 14,000  Level Minneapolis Center
09:12AM 43.6908 -98.0056 258° West 155 178 14,000  Level Minneapolis Center
09:13AM 43.6731 -98.0603 246° West 155 178 14,000  Level Minneapolis Center
09:14AM 43.6531 -98.1144 243° Southwest 158 182 14,000 -60 Level Minneapolis Center
09:15AM 43.6353 -98.1703 246° West 159 183 13,900 -60 Descending Minneapolis Center
09:16AM 43.6119 -98.2369 244° Southwest 160 184 13,900 -60 Level Minneapolis Center
09:17AM 43.5894 -98.2922 241° Southwest 164 189 13,800  Descending Minneapolis Center
09:18AM 43.5675 -98.3483 242° Southwest 166 191 13,900  Climbing Minneapolis Center
09:19AM 43.5483 -98.4028 244° Southwest 162 186 13,900  Level Minneapolis Center
09:20AM 43.5278 -98.4578 243° Southwest 161 185 13,900  Level Minneapolis Center
09:21AM 43.5083 -98.5128 244° Southwest 161 185 13,900  Level Minneapolis Center
09:22AM 43.4928 -98.5689 249° West 159 183 13,900  Level Minneapolis Center
09:23AM 43.4681 -98.6331 242° Southwest 159 183 13,900  Level Minneapolis Center
09:24AM 43.4400 -98.6864 234° Southwest 160 184 13,900  Level Minneapolis Center
09:25AM 43.4186 -98.7400 241° Southwest 159 183 13,900  Level Minneapolis Center
09:27AM 43.4006 -98.8014 248° West 157 181 13,900  Level Minneapolis Center
09:28AM 43.3925 -98.8608 259° West 156 180 13,900 -60 Level Minneapolis Center
09:29AM 43.3892 -98.9297 266° West 154 177 13,800 -60 Descending Minneapolis Center
09:30AM 43.3869 -98.9869 267° West 151 174 13,800  Level Minneapolis Center
09:31AM 43.3828 -99.0508 265° West 152 175 13,800  Level Minneapolis Center
09:32AM 43.3758 -99.1064 260° West 150 173 13,900  Climbing Minneapolis Center
09:33AM 43.3728 -99.1628 266° West 148 170 13,900  Level Minneapolis Center
09:34AM 43.3706 -99.2200 267° West 149 171 13,900  Level Minneapolis Center
09:35AM 43.3636 -99.3033 263° West 155 178 13,900  Level Minneapolis Center
09:36AM 43.3581 -99.3619 263° West 155 178 14,000  Climbing Minneapolis Center
09:37AM 43.3533 -99.4206 264° West 155 178 13,900  Descending Minneapolis Center
09:38AM 43.3489 -99.4794 264° West 155 178 14,000  Climbing Minneapolis Center
09:39AM 43.3447 -99.5358 264° West 151 174 14,000 -60 Level Minneapolis Center
09:40AM 43.3378 -99.5967 261° West 156 180 13,900 -60 Descending Minneapolis Center
09:41AM 43.3314 -99.6581 262° West 160 184 13,900  Level Minneapolis Center
09:42AM 43.3264 -99.7181 263° West 159 183 13,900  Level Minneapolis Center
09:43AM 43.3219 -99.7892 265° West 158 182 13,900  Level Minneapolis Center
09:44AM 43.3175 -99.8489 264° West 158 182 13,900  Level Minneapolis Center
09:45AM 43.3117 -99.9089 262° West 157 181 14,000  Climbing Minneapolis Center
09:46AM 43.3097 -99.9678 267° West 157 181 14,000  Level Minneapolis Center
09:47AM 43.3011 -100.0294 259° West 158 182 14,000 -60 Level Minneapolis Center
09:48AM 43.2900 -100.0906 256° West 162 186 13,900 -60 Descending Minneapolis Center
09:50AM 43.2772 -100.1506 254° West 164 189 13,900  Level Minneapolis Center
09:51AM 43.2706 -100.2108 261° West 162 186 14,000  Climbing Minneapolis Center
09:52AM 43.2653 -100.2689 263° West 159 183 13,900  Descending Minneapolis Center
09:53AM 43.2578 -100.3417 262° West 158 182 14,000 180 Climbing Minneapolis Center
09:54AM 43.2544 -100.3856 264° West 159 183 14,300 120 Climbing Denver Center
09:55AM 43.2483 -100.4625 264° West 161 185 14,300 -60 Level Denver Center
09:56AM 43.2422 -100.5269 263° West 166 191 14,200  Descending Denver Center
09:57AM 43.2333 -100.5889 259° West 167 192 14,300  Climbing Denver Center
09:58AM 43.2253 -100.6514 260° West 167 192 14,200  Descending Denver Center
09:59AM 43.2033 -100.7275 248° West 174 200 14,300  Climbing Denver Center
10:00AM 43.1728 -100.7817 232° Southwest 180 207 14,200  Descending Denver Center
10:01AM 43.1436 -100.8367 234° Southwest 180 207 14,300  Climbing Denver Center
10:02AM 43.1150 -100.8969 237° Southwest 182 209 14,300  Level Denver Center
10:03AM 43.0822 -100.9503 230° Southwest 185 213 14,300 -120 Level Denver Center
10:04AM 43.0436 -101.0147 231° Southwest 184 212 14,100 -60 Descending Denver Center
10:05AM 43.0186 -101.0692 238° Southwest 182 209 14,200 60 Climbing Denver Center
10:06AM 42.9928 -101.1278 239° Southwest 175 201 14,300  Climbing Denver Center
10:07AM 42.9583 -101.1925 234° Southwest 172 198 14,300 180 Level Denver Center
10:08AM 42.9261 -101.2403 227° Southwest 171 197 14,700 420 Climbing Denver Center
10:09AM 42.8983 -101.2864 231° Southwest 159 183 15,200 480 Climbing Denver Center
10:10AM 42.8806 -101.3381 245° Southwest 150 173 15,700 480 Climbing Denver Center
10:11AM 42.8631 -101.3892 245° Southwest 148 170 16,300 480 Climbing Denver Center
10:12AM 42.8419 -101.4464 243° Southwest 159 183 16,700 540 Climbing Denver Center
10:13AM 42.8233 -101.4950 242° Southwest 133 153 17,500 660 Climbing Denver Center
10:14AM 42.8081 -101.5375 244° Southwest 129 148 18,100 660 Climbing Denver Center
10:15AM 42.7831 -101.5836 234° Southwest 135 155 18,900 660 Climbing Denver Center
10:17AM 42.7556 -101.6158 221° Southwest 137 158 19,500 540 Climbing Denver Center
10:18AM 42.7311 -101.6556 230° Southwest 126 145 20,100 480 Climbing Denver Center
10:19AM 42.7017 -101.6908 221° Southwest 130 150 20,600 300 Climbing Denver Center
10:20AM 42.6639 -101.7092 200° South 130 150 20,900 300 Climbing Denver Center
10:21AM 42.6272 -101.7503 220° Southwest 151 174 21,300 360 Climbing Denver Center
10:22AM 42.5983 -101.7967 230° Southwest 145 167 21,700 300 Climbing Denver Center
10:23AM 42.5789 -101.8400 239° Southwest 140 161 22,000 300 Climbing Denver Center
10:24AM 42.5500 -101.8919 233° Southwest 152 175 22,400  Climbing Denver Center
10:25AM 42.5261 -101.9428 237° Southwest 164 189 22,100 -240 Descending Denver Center
10:26AM 42.4981 -101.9997 236° Southwest 186 214 22,000 -180 Descending Denver Center
10:27AM 42.4661 -102.0606 235° Southwest 181 208 21,800 -60 Descending Denver Center
10:28AM 42.4414 -102.1081 235° Southwest 166 191 21,900 -60 Climbing Denver Center
10:29AM 42.4156 -102.1642 238° Southwest 158 182 21,700  Descending Denver Center
10:30AM 42.4206 -102.2178 277° West 153 176 21,900 120 Climbing Denver Center
10:31AM 42.4417 -102.2708 298° West 143 165 22,000  Climbing Denver Center
10:32AM 42.4644 -102.3136 306° West 146 168 22,000  Level Denver Center
10:33AM 42.4886 -102.3700 300° West 153 176 22,000  Level Denver Center
10:35AM 42.5128 -102.4158 306° West 155 178 22,000  Level Denver Center
10:36AM 42.5486 -102.4725 311° West 155 178 22,000  Level Denver Center
10:37AM 42.5722 -102.5194 304° West 157 181 22,000  Level Denver Center
10:38AM 42.6025 -102.5717 308° West 158 182 22,000  Level Denver Center
10:39AM 42.6283 -102.6175 307° West 161 185 22,000  Level Denver Center
10:40AM 42.6561 -102.6714 305° West 157 181 22,000  Level Denver Center
10:41AM 42.6753 -102.7089 305° West 153 176 22,000  Level Denver Center
10:42AM 42.7083 -102.7700 306° West 159 183 22,000  Level Denver Center
10:43AM 42.7347 -102.8172 307° West 164 189 22,000 -60 Level Denver Center
10:44AM 42.7664 -102.8703 309° West 162 186 21,900  Descending Denver Center
10:45AM 42.7936 -102.9158 309° West 162 186 22,000  Climbing Denver Center
10:46AM 42.8250 -102.9661 310° West 157 181 22,000  Level Denver Center
10:47AM 42.8508 -103.0094 309° West 154 177 22,000  Level Denver Center
10:48AM 42.8819 -103.0581 311° West 153 176 22,000  Level Denver Center
10:49AM 42.9053 -103.1039 305° West 155 178 22,000  Level Denver Center
10:50AM 42.9297 -103.1494 306° West 156 180 22,000  Level Denver Center
10:51AM 42.9614 -103.1986 311° West 154 177 22,000  Level Denver Center
10:52AM 42.9886 -103.2408 311° West 155 178 22,000  Level Denver Center
10:53AM 43.0144 -103.2944 303° West 153 176 22,000  Level Denver Center
10:54AM 43.0383 -103.3403 306° West 153 176 22,000  Level Denver Center
10:55AM 43.0578 -103.4017 293° West 157 181 22,000 -60 Level Denver Center
10:56AM 43.0719 -103.4569 289° West 160 184 21,900  Descending Denver Center
10:57AM 43.0914 -103.5197 293° West 160 184 22,000  Climbing Denver Center
10:58AM 43.1083 -103.5708 294° West 158 182 22,000  Level Denver Center
10:59AM 43.1269 -103.6317 293° West 156 180 22,000  Level Denver Center
11:01AM 43.1450 -103.6839 295° West 157 181 22,000  Level Denver Center
11:02AM 43.1631 -103.7464 292° West 158 182 22,000  Level Denver Center
11:03AM 43.1794 -103.8008 292° West 160 184 22,000  Level Denver Center
11:04AM 43.1986 -103.8636 293° West 160 184 22,000 -60 Level Denver Center
11:05AM 43.2119 -103.9200 288° West 161 185 21,900  Descending Denver Center
11:06AM 43.2306 -103.9833 292° West 161 185 22,000  Climbing Denver Center
11:07AM 43.2425 -104.0378 287° West 160 184 22,000 -60 Level Denver Center
11:08AM 43.2600 -104.1003 291° West 158 182 21,900 -300 Descending Denver Center
11:09AM 43.2869 -104.1478 308° West 162 186 21,500 -360 Descending Denver Center
11:10AM 43.3247 -104.1839 325° Northwest 170 196 21,200 -420 Descending Denver Center
11:11AM 43.3697 -104.2206 329° Northwest 171 197 20,700 -540 Descending Denver Center
11:12AM 43.4069 -104.2592 323° Northwest 172 198 20,200 -540 Descending Denver Center
11:13AM 43.4381 -104.3097 310° West 175 201 19,700 -540 Descending Denver Center
11:14AM 43.4786 -104.3667 314° West 182 209 19,200 -600 Descending Denver Center
11:15AM 43.5261 -104.4122 325° Northwest 186 214 18,500 -540 Descending Denver Center
11:16AM 43.5606 -104.4561 317° Northwest 181 208 18,100 -540 Descending Denver Center
11:17AM 43.5997 -104.5131 314° West 181 208 17,400 -540 Descending Denver Center
11:18AM 43.6350 -104.5614 315° West 183 211 17,000 -480 Descending Denver Center
11:19AM 43.6753 -104.6169 315° West 184 212 16,500 -540 Descending Denver Center
11:20AM 43.7089 -104.6650 314° West 183 211 16,000 -480 Descending Denver Center
11:21AM 43.7497 -104.7186 317° Northwest 182 209 15,600 -420 Descending Denver Center
11:22AM 43.7858 -104.7592 321° Northwest 179 206 15,200 -540 Descending Denver Center
11:23AM 43.8239 -104.8114 315° West 175 201 14,600 -540 Descending Denver Center
11:24AM 43.8561 -104.8564 315° West 172 198 14,200 -480 Descending Denver Center
11:25AM 43.8933 -104.8972 322° Northwest 163 188 13,700 -540 Descending Denver Center
11:26AM 43.9247 -104.9261 326° Northwest 153 176 13,200 -660 Descending Denver Center
11:27AM 43.9531 -104.9594 320° Northwest 145 167 12,400 -720 Descending Denver Center
11:28AM 43.9828 -105.0072 311° West 144 166 11,800 -540 Descending Denver Center
11:29AM 43.9939 -105.0606 286° West 149 171 11,300 -540 Descending Denver Center
11:30AM 44.0153 -105.1169 298° West 151 174 10,800 -420 Descending Denver Center
11:32AM 44.0453 -105.1467 325° Northwest 145 167 10,400 -540 Descending Denver Center
11:33AM 44.0836 -105.1772 330° Northwest 130 150 9,700 -660 Descending Denver Center
11:34AM 44.1103 -105.2186 312° West 126 145 9,100 -540 Descending Denver Center
11:35AM 44.1336 -105.2556 311° West 128 147 8,600 -540 Descending Denver Center